createdAt,value
2022-10-29T00:01:10.598Z,4.06
2022-10-29T00:03:12.151Z,4.06
2022-10-29T00:05:13.070Z,4.06
2022-10-29T00:07:14.957Z,4.06
2022-10-29T00:13:19.836Z,4.06
2022-10-29T00:15:21.208Z,4.06
2022-10-29T00:17:22.137Z,4.06
2022-10-29T00:19:23.418Z,4.06
2022-10-29T00:23:26.704Z,4.06
2022-10-29T00:25:28.537Z,4.06
2022-10-29T00:27:30.046Z,4.06
2022-10-29T00:29:31.789Z,4.06
2022-10-29T00:31:32.851Z,4.06
2022-10-29T00:33:34.194Z,4.06
2022-10-29T00:35:35.160Z,4.06
2022-10-29T00:39:38.055Z,4.06
2022-10-29T00:41:39.109Z,4.06
2022-10-29T00:43:40.723Z,4.06
2022-10-29T00:45:41.924Z,4.06
2022-10-29T00:49:45.082Z,4.06
2022-10-29T00:51:46.397Z,4.05
2022-10-29T00:53:48.234Z,4.06
2022-10-29T00:55:49.495Z,4.06
2022-10-29T00:57:50.648Z,4.05
2022-10-29T01:00:35.886Z,4.05
2022-10-29T01:02:37.603Z,4.05
2022-10-29T01:06:40.734Z,4.05
2022-10-29T01:08:42.278Z,4.05
2022-10-29T01:10:43.945Z,4.05
2022-10-29T01:12:45.690Z,4.05
2022-10-29T01:16:48.315Z,4.05
2022-10-29T01:18:50.176Z,4.05
2022-10-29T01:20:51.391Z,4.05
2022-10-29T01:22:52.393Z,4.05
2022-10-29T01:24:53.678Z,4.05
2022-10-29T01:26:54.958Z,4.05
2022-10-29T01:28:56.408Z,4.05
2022-10-29T01:32:59.113Z,4.05
2022-10-29T01:35:00.090Z,4.05
2022-10-29T01:37:01.840Z,4.05
2022-10-29T01:39:03.416Z,4.05
2022-10-29T01:43:05.845Z,4.05
2022-10-29T01:45:06.957Z,4.05
2022-10-29T01:47:07.849Z,4.04
2022-10-29T01:49:08.980Z,4.05
2022-10-29T01:51:10.797Z,4.04
2022-10-29T01:53:11.799Z,4.04
2022-10-29T01:55:12.721Z,4.04
2022-10-29T01:59:22.844Z,4.04
2022-10-29T02:01:17.963Z,4.05
2022-10-29T02:03:19.605Z,4.04
2022-10-29T02:05:20.742Z,4.05
2022-10-29T02:07:22.201Z,4.04
2022-10-29T02:09:23.359Z,4.04
2022-10-29T02:11:25.134Z,4.04
2022-10-29T02:15:28.184Z,4.04
2022-10-29T02:17:29.678Z,4.04
2022-10-29T02:19:30.806Z,4.04
2022-10-29T02:21:32.241Z,4.04
2022-10-29T02:23:33.580Z,4.04
2022-10-29T02:25:35.309Z,4.04
2022-10-29T02:27:36.399Z,4.04
2022-10-29T02:31:39.960Z,4.04
2022-10-29T02:33:41.426Z,4.04
2022-10-29T02:37:44.360Z,4.04
2022-10-29T02:41:47.203Z,4.04
2022-10-29T02:43:48.849Z,4.04
2022-10-29T02:45:49.848Z,4.04
2022-10-29T02:47:51.005Z,4.04
2022-10-29T02:49:52.739Z,4.04
2022-10-29T02:51:54.416Z,4.04
2022-10-29T02:53:56.216Z,4.04
2022-10-29T02:57:59.417Z,4.04
2022-10-29T03:00:00.804Z,4.04
2022-10-29T03:02:02.697Z,4.04
2022-10-29T03:04:03.739Z,4.04
2022-10-29T03:08:06.924Z,4.03
2022-10-29T03:10:08.315Z,4.03
2022-10-29T03:12:09.602Z,4.04
2022-10-29T03:14:11.505Z,4.03
2022-10-29T03:16:12.916Z,4.03
2022-10-29T03:18:14.159Z,4.04
2022-10-29T03:20:15.481Z,4.03
2022-10-29T03:24:17.987Z,4.03
2022-10-29T03:26:19.353Z,4.03
2022-10-29T03:30:22.022Z,4.03
2022-10-29T03:32:23.777Z,4.03
2022-10-29T03:34:25.318Z,4.03
2022-10-29T03:36:26.539Z,4.03
2022-10-29T03:40:29.600Z,4.03
2022-10-29T03:42:30.892Z,4.03
2022-10-29T03:44:32.085Z,4.03
2022-10-29T03:46:33.567Z,4.03
2022-10-29T03:50:35.938Z,4.03
2022-10-29T03:52:37.041Z,4.03
2022-10-29T03:54:38.846Z,4.03
2022-10-29T03:56:40.345Z,4.03
2022-10-29T03:58:42.247Z,4.03
2022-10-29T04:00:43.473Z,4.03
2022-10-29T04:02:44.761Z,4.03
2022-10-29T04:06:46.982Z,4.02
2022-10-29T04:08:47.947Z,4.03
2022-10-29T04:10:49.507Z,4.02
2022-10-29T04:12:51.049Z,4.02
2022-10-29T04:14:52.342Z,4.02
2022-10-29T04:16:54.036Z,4.02
2022-10-29T04:18:55.200Z,4.02
2022-10-29T04:29:01.314Z,4.02
2022-10-29T04:31:02.616Z,4.02
2022-10-29T04:33:03.773Z,4.02
2022-10-29T04:35:04.920Z,4.02
2022-10-29T04:39:07.653Z,4.02
2022-10-29T04:41:09.094Z,4.02
2022-10-29T04:43:10.974Z,4.02
2022-10-29T04:45:12.578Z,4.02
2022-10-29T04:49:15.488Z,4.02
2022-10-29T04:51:16.688Z,4.02
2022-10-29T04:55:18.946Z,4.02
2022-10-29T04:57:20.593Z,4.02
2022-10-29T04:59:21.946Z,4.02
2022-10-29T05:01:23.257Z,4.02
2022-10-29T05:05:25.986Z,4.02
2022-10-29T05:07:27.540Z,4.02
2022-10-29T05:09:29.312Z,4.02
2022-10-29T05:11:30.497Z,4.02
2022-10-29T05:13:31.653Z,4.02
2022-10-29T05:15:33.103Z,4.02
2022-10-29T05:17:34.288Z,4.02
2022-10-29T05:19:36.000Z,4.01
2022-10-29T05:21:37.877Z,4.02
2022-10-29T05:23:39.035Z,4.02
2022-10-29T05:25:40.458Z,4.01
2022-10-29T05:27:41.675Z,4.01
2022-10-29T05:31:44.193Z,4.01
2022-10-29T05:33:45.787Z,4.01
2022-10-29T05:35:47.133Z,4.01
2022-10-29T05:37:49.011Z,4.01
2022-10-29T05:41:52.107Z,4.01
2022-10-29T05:43:53.092Z,4.01
2022-10-29T05:47:55.509Z,4.01
2022-10-29T05:49:56.398Z,4.01
2022-10-29T05:51:57.635Z,4.01
2022-10-29T05:53:58.838Z,4.01
2022-10-29T05:56:00.030Z,4.01
2022-10-29T05:58:01.167Z,4.01
2022-10-29T06:00:02.674Z,4.01
2022-10-29T06:04:05.225Z,4.01
2022-10-29T06:06:06.598Z,4.01
2022-10-29T06:08:07.876Z,4.01
2022-10-29T06:10:09.034Z,4.01
2022-10-29T06:12:10.721Z,4.01
2022-10-29T06:14:12.055Z,4.01
2022-10-29T06:16:13.943Z,4.01
2022-10-29T06:20:16.670Z,4.01
2022-10-29T06:22:18.312Z,4.01
2022-10-29T06:24:19.703Z,4
2022-10-29T06:26:21.090Z,4
2022-10-29T06:30:23.733Z,4
2022-10-29T06:32:25.517Z,4
2022-10-29T06:34:27.091Z,4
2022-10-29T06:36:28.995Z,4
2022-10-29T06:38:30.796Z,4
2022-10-29T06:40:31.837Z,4
2022-10-29T06:42:32.902Z,4
2022-10-29T06:46:35.939Z,4
2022-10-29T06:48:37.426Z,4
2022-10-29T06:50:38.795Z,4
2022-10-29T06:52:39.955Z,4
2022-10-29T06:54:41.789Z,4
2022-10-29T06:56:42.834Z,4
2022-10-29T06:58:43.800Z,4
2022-10-29T07:02:46.769Z,4
2022-10-29T07:04:47.712Z,4
2022-10-29T07:06:49.368Z,4
2022-10-29T07:08:50.816Z,4.01
2022-10-29T07:12:54.206Z,4
2022-10-29T07:14:55.511Z,4
2022-10-29T07:18:58.574Z,4.01
2022-10-29T07:20:59.791Z,4.01
2022-10-29T07:23:01.317Z,4.02
2022-10-29T07:25:02.489Z,4.03
2022-10-29T07:29:05.928Z,4.04
2022-10-29T07:31:07.661Z,4.04
2022-10-29T07:33:09.101Z,4.04
2022-10-29T07:35:10.457Z,4.03
2022-10-29T07:37:11.664Z,4.03
2022-10-29T07:39:13.349Z,4.03
2022-10-29T07:41:14.872Z,4.03
2022-10-29T07:43:59.975Z,4.03
2022-10-29T07:46:01.281Z,4.03
2022-10-29T07:50:04.342Z,4.03
2022-10-29T07:52:06.174Z,4.03
2022-10-29T07:54:10.871Z,4.03
2022-10-29T07:56:09.300Z,4.03
2022-10-29T07:58:11.026Z,4.03
2022-10-29T08:02:13.358Z,4.03
2022-10-29T08:06:16.152Z,4.03
2022-10-29T08:08:18.074Z,4.03
2022-10-29T08:12:21.662Z,4.04
2022-10-29T08:14:23.050Z,4.05
2022-10-29T08:16:24.918Z,4.05
2022-10-29T08:18:25.886Z,4.08
2022-10-29T08:22:29.308Z,4.08
2022-10-29T08:24:30.532Z,4.08
2022-10-29T08:26:32.173Z,4.08
2022-10-29T08:28:35.616Z,4.09
2022-10-29T08:32:35.464Z,4.1
2022-10-29T08:34:36.810Z,4.1
2022-10-29T08:36:38.089Z,4.1
2022-10-29T08:38:39.766Z,4.11
2022-10-29T08:40:40.675Z,4.11
2022-10-29T08:42:42.340Z,4.11
2022-10-29T08:44:43.595Z,4.11
2022-10-29T08:48:45.857Z,4.12
2022-10-29T08:50:46.788Z,4.12
2022-10-29T08:52:58.620Z,4.13
2022-10-29T08:54:49.887Z,4.13
2022-10-29T08:56:51.194Z,4.13
2022-10-29T08:58:52.885Z,4.14
2022-10-29T09:00:53.955Z,4.14
2022-10-29T09:04:56.179Z,4.14
2022-10-29T09:06:57.222Z,4.15
2022-10-29T09:08:58.217Z,4.15
2022-10-29T09:10:59.149Z,4.16
2022-10-29T09:13:00.355Z,4.16
2022-10-29T09:15:01.419Z,4.16
2022-10-29T09:17:02.825Z,4.16
2022-10-29T09:21:06.255Z,4.17
2022-10-29T09:23:07.278Z,4.17
2022-10-29T09:25:08.355Z,4.17
2022-10-29T09:27:10.583Z,4.17
2022-10-29T09:31:12.305Z,4.17
2022-10-29T09:33:13.485Z,4.18
2022-10-29T09:35:14.865Z,4.18
2022-10-29T09:37:15.842Z,4.18
2022-10-29T09:39:18.839Z,4.18
2022-10-29T09:41:18.117Z,4.18
2022-10-29T09:43:19.826Z,4.19
2022-10-29T09:47:22.381Z,4.19
2022-10-29T09:49:23.654Z,4.19
2022-10-29T09:53:26.871Z,4.19
2022-10-29T09:55:28.569Z,4.19
2022-10-29T09:57:29.567Z,4.19
2022-10-29T09:59:30.687Z,4.19
2022-10-29T10:03:33.730Z,4.2
2022-10-29T10:05:34.542Z,4.19
2022-10-29T10:07:36.090Z,4.19
2022-10-29T10:09:37.571Z,4.19
2022-10-29T10:13:40.701Z,4.19
2022-10-29T10:15:42.251Z,4.2
2022-10-29T10:17:43.054Z,4.2
2022-10-29T10:19:44.318Z,4.2
2022-10-29T10:21:45.741Z,4.19
2022-10-29T10:25:48.414Z,4.2
2022-10-29T10:29:50.864Z,4.2
2022-10-29T10:31:51.752Z,4.2
2022-10-29T10:33:53.071Z,4.2
2022-10-29T10:35:54.288Z,4.2
2022-10-29T10:37:55.444Z,4.2
2022-10-29T10:39:55.958Z,4.2
2022-10-29T10:41:56.977Z,4.2
2022-10-29T10:45:59.667Z,4.2
2022-10-29T10:48:01.476Z,4.2
2022-10-29T10:50:02.278Z,4.2
2022-10-29T10:52:03.846Z,4.2
2022-10-29T10:54:04.843Z,4.2
2022-10-29T10:58:06.821Z,4.19
2022-10-29T11:02:10.166Z,4.19
2022-10-29T11:04:11.482Z,4.19
2022-10-29T11:06:12.808Z,4.19
2022-10-29T11:10:15.408Z,4.19
2022-10-29T11:12:16.459Z,4.19
2022-10-29T11:14:17.385Z,4.19
2022-10-29T11:16:18.956Z,4.19
2022-10-29T11:18:20.456Z,4.18
2022-10-29T11:20:21.295Z,4.18
2022-10-29T11:22:30.301Z,4.18
2022-10-29T11:24:23.545Z,4.18
2022-10-29T11:28:26.238Z,4.18
2022-10-29T11:30:27.883Z,4.18
2022-10-29T11:34:31.204Z,4.18
2022-10-29T11:36:32.565Z,4.19
2022-10-29T11:38:33.657Z,4.18
2022-10-29T11:40:34.764Z,4.18
2022-10-29T11:44:38.082Z,4.18
2022-10-29T11:46:39.404Z,4.18
2022-10-29T11:48:41.138Z,4.18
2022-10-29T11:50:42.245Z,4.18
2022-10-29T11:54:45.251Z,4.18
2022-10-29T11:56:46.643Z,4.18
2022-10-29T12:00:49.995Z,4.17
2022-10-29T12:02:51.336Z,4.18
2022-10-29T12:04:53.015Z,4.18
2022-10-29T12:06:54.412Z,4.18
2022-10-29T12:10:56.277Z,4.17
2022-10-29T12:12:57.706Z,4.17
2022-10-29T12:14:59.148Z,4.17
2022-10-29T12:17:00.867Z,4.17
2022-10-29T12:19:02.476Z,4.17
2022-10-29T12:21:04.004Z,4.17
2022-10-29T12:23:06.971Z,4.17
2022-10-29T12:27:07.785Z,4.17
2022-10-29T12:29:09.213Z,4.17
2022-10-29T12:31:10.525Z,4.17
2022-10-29T12:33:11.904Z,4.17
2022-10-29T12:35:13.198Z,4.17
2022-10-29T12:37:14.013Z,4.17
2022-10-29T12:39:15.634Z,4.17
2022-10-29T12:43:18.575Z,4.17
2022-10-29T12:45:19.622Z,4.17
2022-10-29T12:47:20.905Z,4.17
2022-10-29T12:49:21.816Z,4.17
2022-10-29T12:53:24.914Z,4.17
2022-10-29T12:55:25.913Z,4.17
2022-10-29T12:59:28.661Z,4.17
2022-10-29T13:01:50.481Z,4.17
2022-10-29T13:03:31.333Z,4.17
2022-10-29T13:05:32.472Z,4.17
2022-10-29T13:09:34.655Z,4.17
2022-10-29T13:11:35.463Z,4.17
2022-10-29T13:13:36.282Z,4.16
2022-10-29T13:15:37.680Z,4.16
2022-10-29T13:17:39.046Z,4.16
2022-10-29T13:19:39.968Z,4.16
2022-10-29T13:21:41.690Z,4.16
2022-10-29T13:25:43.866Z,4.16
2022-10-29T13:27:45.223Z,4.16
2022-10-29T13:29:46.513Z,4.16
2022-10-29T13:31:47.867Z,4.16
2022-10-29T13:35:50.080Z,4.16
2022-10-29T13:37:51.827Z,4.16
2022-10-29T13:39:53.220Z,4.16
2022-10-29T13:41:54.743Z,4.16
2022-10-29T13:43:55.523Z,4.16
2022-10-29T13:45:56.712Z,4.16
2022-10-29T13:47:57.972Z,4.16
2022-10-29T13:51:59.725Z,4.16
2022-10-29T13:54:00.869Z,4.16
2022-10-29T13:56:02.180Z,4.16
2022-10-29T13:58:03.723Z,4.16
2022-10-29T14:00:04.747Z,4.16
2022-10-29T14:02:05.720Z,4.16
2022-10-29T14:04:07.343Z,4.16
2022-10-29T14:08:09.301Z,4.16
2022-10-29T14:10:10.514Z,4.16
2022-10-29T14:12:11.601Z,4.16
2022-10-29T14:14:13.009Z,4.16
2022-10-29T14:16:14.746Z,4.15
2022-10-29T14:18:15.870Z,4.15
2022-10-29T14:20:16.669Z,4.16
2022-10-29T14:24:18.424Z,4.15
2022-10-29T14:28:20.892Z,4.16
2022-10-29T14:31:05.685Z,4.16
2022-10-29T14:33:07.032Z,4.15
2022-10-29T14:35:08.605Z,4.15
2022-10-29T14:37:09.858Z,4.15
2022-10-29T14:39:11.005Z,4.15
2022-10-29T14:41:12.133Z,4.15
2022-10-29T14:45:15.136Z,4.15
2022-10-29T14:47:16.733Z,4.15
2022-10-29T14:51:19.488Z,4.15
2022-10-29T14:55:22.204Z,4.15
2022-10-29T14:57:23.056Z,4.14
2022-10-29T15:01:25.995Z,4.14
2022-10-29T15:03:27.639Z,4.15
2022-10-29T15:05:29.011Z,4.14
2022-10-29T15:07:29.850Z,4.15
2022-10-29T15:09:31.473Z,4.14
2022-10-29T15:11:33.010Z,4.15
2022-10-29T15:13:34.242Z,4.14
2022-10-29T15:17:37.187Z,4.14
2022-10-29T15:19:38.391Z,4.14
2022-10-29T15:23:40.970Z,4.14
2022-10-29T15:25:42.292Z,4.14
2022-10-29T15:27:43.586Z,4.14
2022-10-29T15:29:44.924Z,4.14
2022-10-29T15:33:47.202Z,4.14
2022-10-29T15:35:48.937Z,4.14
2022-10-29T15:37:50.393Z,4.14
2022-10-29T15:39:51.493Z,4.14
2022-10-29T15:41:53.313Z,4.14
2022-10-29T15:43:54.183Z,4.14
2022-10-29T15:45:55.730Z,4.14
2022-10-29T15:49:59.064Z,4.14
2022-10-29T15:52:00.136Z,4.14
2022-10-29T15:54:01.321Z,4.14
2022-10-29T15:56:02.829Z,4.14
2022-10-29T15:58:03.917Z,4.14
2022-10-29T16:00:04.954Z,4.14
2022-10-29T16:02:06.068Z,4.14
2022-10-29T16:04:07.125Z,4.14
2022-10-29T16:06:08.087Z,4.14
2022-10-29T16:08:09.833Z,4.14
2022-10-29T16:10:11.575Z,4.14
2022-10-29T16:12:12.772Z,4.13
2022-10-29T16:16:16.146Z,4.14
2022-10-29T16:18:17.420Z,4.14
2022-10-29T16:20:18.383Z,4.13
2022-10-29T16:22:19.268Z,4.13
2022-10-29T16:24:20.250Z,4.14
2022-10-29T16:26:21.250Z,4.14
2022-10-29T16:28:22.772Z,4.13
2022-10-29T16:32:25.075Z,4.13
2022-10-29T16:34:26.688Z,4.13
2022-10-29T16:36:27.565Z,4.13
2022-10-29T16:38:29.394Z,4.13
2022-10-29T16:42:31.943Z,4.13
2022-10-29T16:44:33.661Z,4.13
2022-10-29T16:46:35.290Z,4.13
2022-10-29T16:48:36.606Z,4.13
2022-10-29T16:50:38.323Z,4.12
2022-10-29T16:52:39.504Z,4.13
2022-10-29T16:54:40.659Z,4.13
2022-10-29T16:58:43.060Z,4.13
2022-10-29T17:00:44.339Z,4.13
2022-10-29T17:04:46.504Z,4.13
2022-10-29T17:06:47.557Z,4.13
2022-10-29T17:08:49.194Z,4.13
2022-10-29T17:10:50.958Z,4.13
2022-10-29T17:14:53.730Z,4.12
2022-10-29T17:16:55.287Z,4.13
2022-10-29T17:18:56.182Z,4.12
2022-10-29T17:20:57.858Z,4.12
2022-10-29T17:25:01.402Z,4.12
2022-10-29T17:27:03.149Z,4.12
2022-10-29T17:31:05.330Z,4.12
2022-10-29T17:33:14.347Z,4.12
2022-10-29T17:35:08.139Z,4.12
2022-10-29T17:37:09.126Z,4.12
2022-10-29T17:41:11.440Z,4.12
2022-10-29T17:43:12.290Z,4.12
2022-10-29T17:45:13.596Z,4.12
2022-10-29T17:47:15.023Z,4.12
2022-10-29T17:49:15.948Z,4.12
2022-10-29T17:51:17.154Z,4.12
2022-10-29T17:53:18.806Z,4.12
2022-10-29T17:57:21.092Z,4.12
2022-10-29T17:59:22.103Z,4.12
2022-10-29T18:01:23.638Z,4.12
2022-10-29T18:03:24.557Z,4.12
2022-10-29T18:05:26.149Z,4.12
2022-10-29T18:07:27.963Z,4.12
2022-10-29T18:09:29.485Z,4.12
2022-10-29T18:13:32.457Z,4.11
2022-10-29T18:15:34.043Z,4.12
2022-10-29T18:17:35.413Z,4.12
2022-10-29T18:19:36.681Z,4.11
2022-10-29T18:23:39.309Z,4.12
2022-10-29T18:25:41.022Z,4.11
2022-10-29T18:29:43.959Z,4.11
2022-10-29T18:31:45.358Z,4.11
2022-10-29T18:33:46.877Z,4.11
2022-10-29T18:35:48.439Z,4.11
2022-10-29T18:39:50.351Z,4.12
2022-10-29T18:41:51.279Z,4.11
2022-10-29T18:43:52.787Z,4.11
2022-10-29T18:45:53.878Z,4.11
2022-10-29T18:47:55.398Z,4.11
2022-10-29T18:49:56.697Z,4.11
2022-10-29T18:51:57.748Z,4.11
2022-10-29T18:55:59.742Z,4.11
2022-10-29T18:58:01.376Z,4.11
2022-10-29T19:00:02.632Z,4.11
2022-10-29T19:02:04.239Z,4.1
2022-10-29T19:06:07.048Z,4.1
2022-10-29T19:08:07.874Z,4.1
2022-10-29T19:10:09.695Z,4.1
2022-10-29T19:12:11.478Z,4.1
2022-10-29T19:14:13.157Z,4.1
2022-10-29T19:16:14.505Z,4.1
2022-10-29T19:18:16.017Z,4.1
2022-10-29T19:22:18.681Z,4.1
2022-10-29T19:24:20.307Z,4.1
2022-10-29T19:28:23.257Z,4.1
2022-10-29T19:30:24.181Z,4.1
2022-10-29T19:32:25.311Z,4.1
2022-10-29T19:34:27.071Z,4.1
2022-10-29T19:38:29.951Z,4.1
2022-10-29T19:40:31.641Z,4.1
2022-10-29T19:42:33.213Z,4.1
2022-10-29T19:44:34.666Z,4.1
2022-10-29T19:46:36.119Z,4.1
2022-10-29T19:48:37.154Z,4.1
2022-10-29T19:50:38.158Z,4.1
2022-10-29T19:54:40.774Z,4.1
2022-10-29T19:56:41.720Z,4.1
2022-10-29T20:00:45.500Z,4.1
2022-10-29T20:04:48.190Z,4.1
2022-10-29T20:06:49.911Z,4.1
2022-10-29T20:08:51.110Z,4.1
2022-10-29T20:10:52.926Z,4.1
2022-10-29T20:12:54.126Z,4.1
2022-10-29T20:14:55.944Z,4.09
2022-10-29T20:16:57.289Z,4.1
2022-10-29T20:20:59.807Z,4.09
2022-10-29T20:23:01.328Z,4.09
2022-10-29T20:25:02.067Z,4.09
2022-10-29T20:27:03.687Z,4.09
2022-10-29T20:29:04.991Z,4.09
2022-10-29T20:31:06.619Z,4.09
2022-10-29T20:33:07.532Z,4.09
2022-10-29T20:35:08.646Z,4.09
2022-10-29T20:37:09.750Z,4.09
2022-10-29T20:41:12.196Z,4.09
2022-10-29T20:43:13.579Z,4.09
2022-10-29T20:47:16.797Z,4.09
2022-10-29T20:49:18.154Z,4.09
2022-10-29T20:51:19.580Z,4.09
2022-10-29T20:53:20.916Z,4.09
2022-10-29T20:55:21.837Z,4.09
2022-10-29T20:57:23.559Z,4.09
2022-10-29T20:59:24.899Z,4.08
2022-10-29T21:03:27.371Z,4.09
2022-10-29T21:05:28.374Z,4.08
2022-10-29T21:09:31.493Z,4.09
2022-10-29T21:11:32.763Z,4.09
2022-10-29T21:13:34.310Z,4.09
2022-10-29T21:15:35.713Z,4.08
2022-10-29T21:16:19.571Z,4.08
2022-10-29T21:18:20.840Z,4.08
2022-10-29T21:20:22.590Z,4.08
2022-10-29T21:22:24.445Z,4.08
2022-10-29T21:24:25.554Z,4.08
2022-10-29T21:26:26.749Z,4.08
2022-10-29T21:30:29.089Z,4.08
2022-10-29T21:32:30.286Z,4.08
2022-10-29T21:34:31.947Z,4.08
2022-10-29T21:36:33.823Z,4.08
2022-10-29T21:38:34.706Z,4.08
2022-10-29T21:40:35.920Z,4.08
2022-10-29T21:42:37.349Z,4.08
2022-10-29T21:46:40.045Z,4.08
2022-10-29T21:48:41.470Z,4.08
2022-10-29T21:50:42.381Z,4.08
2022-10-29T21:52:43.316Z,4.08
2022-10-29T21:56:45.499Z,4.08
2022-10-29T21:58:47.057Z,4.08
2022-10-29T22:00:48.911Z,4.08
2022-10-29T22:02:50.403Z,4.08
2022-10-29T22:04:51.718Z,4.08
2022-10-29T22:06:53.563Z,4.08
2022-10-29T22:08:54.602Z,4.08
2022-10-29T22:12:58.498Z,4.08
2022-10-29T22:14:59.551Z,4.08
2022-10-29T22:19:03.118Z,4.08
2022-10-29T22:21:04.139Z,4.08
2022-10-29T22:23:06.038Z,4.08
2022-10-29T22:25:07.155Z,4.08
2022-10-29T22:29:10.026Z,4.08
2022-10-29T22:31:11.509Z,4.08
2022-10-29T22:33:13.053Z,4.07
2022-10-29T22:35:14.678Z,4.07
2022-10-29T22:39:18.104Z,4.08
2022-10-29T22:41:19.309Z,4.07
2022-10-29T22:43:20.667Z,4.07
2022-10-29T22:45:22.022Z,4.07
2022-10-29T22:47:23.077Z,4.07
2022-10-29T22:49:24.416Z,4.07
2022-10-29T22:51:26.165Z,4.07
2022-10-29T22:55:28.858Z,4.07
2022-10-29T22:57:30.298Z,4.07
2022-10-29T22:59:31.585Z,4.07
2022-10-29T23:01:33.163Z,4.07
2022-10-29T23:05:36.180Z,4.07
2022-10-29T23:07:37.297Z,4.07
2022-10-29T23:09:38.548Z,4.07
2022-10-29T23:11:40.128Z,4.07
2022-10-29T23:13:41.219Z,4.07
2022-10-29T23:15:42.512Z,4.07
2022-10-29T23:17:44.291Z,4.06
2022-10-29T23:21:46.431Z,4.06
2022-10-29T23:23:48.293Z,4.06
2022-10-29T23:27:50.513Z,4.06
2022-10-29T23:29:51.458Z,4.06
2022-10-29T23:31:53.224Z,4.06
2022-10-29T23:33:54.936Z,4.06
2022-10-29T23:37:57.901Z,4.06
2022-10-29T23:39:58.593Z,4.06
2022-10-29T23:42:00.394Z,4.06
2022-10-29T23:44:01.818Z,4.06
2022-10-29T23:48:05.015Z,4.06
2022-10-29T23:50:06.557Z,4.06
2022-10-29T23:52:08.187Z,4.06
2022-10-29T23:54:09.724Z,4.06
2022-10-29T23:56:11.617Z,4.06
2022-10-29T23:58:12.843Z,4.06
